createdAt,value
2022-09-04T00:01:25.362Z,52031.96
2022-09-04T00:03:57.857Z,52039.60
2022-09-04T00:06:30.474Z,52052.46
2022-09-04T00:09:04.320Z,52045.63
2022-09-04T00:11:42.243Z,52038.39
2022-09-04T00:14:12.522Z,52026.74
2022-09-04T00:16:43.392Z,52048.44
2022-09-04T00:19:14.705Z,52049.64
2022-09-04T00:21:45.724Z,52050.85
2022-09-04T00:24:16.898Z,52050.45
2022-09-04T00:26:49.092Z,52041.61
2022-09-04T00:29:21.174Z,52046.43
2022-09-04T00:31:52.022Z,52025.94
2022-09-04T00:34:25.632Z,52050.85
2022-09-04T00:36:56.087Z,52060.89
2022-09-04T00:39:28.963Z,52051.25
2022-09-04T00:42:01.503Z,52047.23
2022-09-04T00:44:44.829Z,52039.20
2022-09-04T00:47:24.717Z,52045.23
2022-09-04T00:50:12.247Z,52058.89
2022-09-04T00:52:58.392Z,52045.63
2022-09-04T00:55:40.294Z,52057.68
2022-09-04T00:58:16.653Z,52035.98
2022-09-04T01:00:47.494Z,52055.67
2022-09-04T01:03:31.399Z,52059.69
2022-09-04T01:06:18.471Z,52068.53
2022-09-04T01:09:00.213Z,52051.25
2022-09-04T01:11:32.432Z,52054.06
2022-09-04T01:14:13.413Z,52059.29
2022-09-04T01:16:45.986Z,52065.72
2022-09-04T01:19:20.012Z,52065.32
2022-09-04T01:21:51.934Z,52067.73
2022-09-04T01:24:26.701Z,52048.84
2022-09-04T01:26:57.786Z,52056.07
2022-09-04T01:29:30.611Z,52062.50
2022-09-04T01:32:02.953Z,52059.70
2022-09-04T01:34:35.995Z,52060.49
2022-09-04T01:37:07.447Z,52083.40
2022-09-04T01:39:37.573Z,52069.74
2022-09-04T01:42:09.164Z,52081.79
2022-09-04T01:44:38.953Z,52058.08
2022-09-04T01:47:12.317Z,52079.78
2022-09-04T01:49:42.967Z,52070.14
2022-09-04T01:52:16.524Z,52069.74
2022-09-04T01:54:51.371Z,52075.76
2022-09-04T01:57:25.887Z,52065.72
2022-09-04T01:59:59.444Z,52055.67
2022-09-04T02:02:30.841Z,52058.89
2022-09-04T02:05:08.223Z,52072.14
2022-09-04T02:07:40.079Z,52069.73
2022-09-04T02:10:12.866Z,52080.59
2022-09-04T02:12:51.302Z,52069.74
2022-09-04T02:15:26.814Z,52077.77
2022-09-04T02:17:58.670Z,52046.43
2022-09-04T02:20:29.017Z,52052.46
2022-09-04T02:23:04.722Z,52067.32
2022-09-04T02:25:36.751Z,52078.18
2022-09-04T02:28:11.590Z,52065.32
2022-09-04T02:30:43.594Z,52070.94
2022-09-04T02:33:19.608Z,52083.00
2022-09-04T02:35:50.814Z,52069.33
2022-09-04T02:38:22.775Z,52063.71
2022-09-04T02:40:53.291Z,52082.59
2022-09-04T02:43:26.428Z,52076.57
2022-09-04T02:46:00.549Z,52074.96
2022-09-04T02:48:35.627Z,52069.34
2022-09-04T02:51:14.227Z,52074.96
2022-09-04T02:53:45.836Z,52083.80
2022-09-04T02:56:21.511Z,52084.60
2022-09-04T02:58:54.512Z,52090.23
2022-09-04T03:01:26.305Z,52072.15
2022-09-04T03:03:58.730Z,52080.18
2022-09-04T03:06:41.046Z,52080.99
2022-09-04T03:09:11.948Z,52077.77
2022-09-04T03:11:42.703Z,52064.51
2022-09-04T03:14:13.988Z,52075.76
2022-09-04T03:16:44.541Z,52085.01
2022-09-04T03:19:16.794Z,52078.18
2022-09-04T03:21:47.629Z,52100.28
2022-09-04T03:24:19.095Z,52092.64
2022-09-04T03:26:50.951Z,52079.78
2022-09-04T03:29:24.953Z,52080.58
2022-09-04T03:31:58.764Z,52090.63
2022-09-04T03:34:31.429Z,52086.61
2022-09-04T03:37:05.130Z,52094.25
2022-09-04T03:39:36.814Z,52104.70
2022-09-04T03:42:08.133Z,52091.04
2022-09-04T03:44:41.734Z,52087.82
2022-09-04T03:47:13.627Z,52089.83
2022-09-04T03:49:47.822Z,52077.37
2022-09-04T03:52:20.125Z,52090.23
2022-09-04T03:55:11.408Z,52083.00
2022-09-04T03:57:50.891Z,52091.84
2022-09-04T04:00:21.850Z,52102.29
2022-09-04T04:03:02.119Z,52102.29
2022-09-04T04:05:37.254Z,52075.76
2022-09-04T04:08:11.580Z,52081.79
2022-09-04T04:10:46.005Z,52083.80
2022-09-04T04:13:21.856Z,52081.79
2022-09-04T04:15:54.530Z,52089.83
2022-09-04T04:18:35.177Z,52084.20
2022-09-04T04:21:06.678Z,52080.59
2022-09-04T04:23:43.651Z,52079.78
2022-09-04T04:26:15.106Z,52082.19
2022-09-04T04:29:00.094Z,52070.54
2022-09-04T04:31:34.980Z,52089.43
2022-09-04T04:34:05.983Z,52085.00
2022-09-04T04:36:40.415Z,52094.65
2022-09-04T04:39:16.589Z,52092.64
2022-09-04T04:42:08.524Z,52070.14
2022-09-04T04:45:11.524Z,52078.57
2022-09-04T04:47:57.836Z,52074.96
2022-09-04T04:50:28.686Z,52086.21
2022-09-04T04:53:01.113Z,52091.04
2022-09-04T04:55:40.212Z,52085.41
2022-09-04T04:58:29.424Z,52084.20
2022-09-04T05:01:05.517Z,52074.16
2022-09-04T05:03:39.572Z,52086.61
2022-09-04T05:06:12.714Z,52081.39
2022-09-04T05:08:44.093Z,52097.06
2022-09-04T05:11:15.499Z,52081.39
2022-09-04T05:13:52.795Z,52078.58
2022-09-04T05:16:24.395Z,52098.27
2022-09-04T05:18:57.292Z,52093.45
2022-09-04T05:21:30.475Z,52107.91
2022-09-04T05:24:01.098Z,52078.18
2022-09-04T05:26:32.817Z,52076.16
2022-09-04T05:29:04.702Z,52080.99
2022-09-04T05:31:38.215Z,52082.60
2022-09-04T05:34:11.197Z,52082.59
2022-09-04T05:36:44.593Z,52080.99
2022-09-04T05:39:16.951Z,52079.38
2022-09-04T05:41:52.310Z,52086.61
2022-09-04T05:44:28.214Z,52076.97
2022-09-04T05:47:02.653Z,52077.77
2022-09-04T05:49:36.843Z,52081.39
2022-09-04T05:52:10.713Z,52081.39
2022-09-04T05:54:57.242Z,52075.36
2022-09-04T05:57:32.617Z,52087.01
2022-09-04T06:00:07.699Z,52069.34
2022-09-04T06:02:56.821Z,52065.71
2022-09-04T06:05:31.648Z,52069.73
2022-09-04T06:08:07.648Z,52073.76
2022-09-04T06:10:41.152Z,52065.72
2022-09-04T06:13:15.567Z,52068.53
2022-09-04T06:15:48.672Z,52072.15
2022-09-04T06:18:26.957Z,52065.72
2022-09-04T06:21:01.012Z,52074.16
2022-09-04T06:23:46.815Z,52059.69
2022-09-04T06:26:31.698Z,52065.72
2022-09-04T06:29:06.702Z,52070.54
2022-09-04T06:31:57.201Z,52049.64
2022-09-04T06:34:30.888Z,52071.34
2022-09-04T06:37:04.228Z,52060.89
2022-09-04T06:39:39.326Z,52061.30
2022-09-04T06:42:13.193Z,52059.29
2022-09-04T06:44:48.656Z,52071.75
2022-09-04T06:47:21.654Z,52074.56
2022-09-04T06:49:59.506Z,52070.94
2022-09-04T06:52:31.099Z,52049.24
2022-09-04T06:55:01.555Z,52057.28
2022-09-04T06:57:39.049Z,52065.71
2022-09-04T07:00:10.309Z,52052.86
2022-09-04T07:02:45.338Z,52051.25
2022-09-04T07:05:19.026Z,52058.48
2022-09-04T07:07:50.800Z,52057.28
2022-09-04T07:10:21.959Z,52074.55
2022-09-04T07:13:02.579Z,52069.73
2022-09-04T07:15:37.452Z,52071.35
2022-09-04T07:18:11.294Z,52070.54
2022-09-04T07:20:43.265Z,52078.18
2022-09-04T07:23:23.941Z,52074.96
2022-09-04T07:26:00.148Z,52069.73
2022-09-04T07:28:34.156Z,52064.11
2022-09-04T07:31:05.519Z,52057.28
2022-09-04T07:33:36.872Z,52065.72
2022-09-04T07:36:09.640Z,52044.02
2022-09-04T07:38:42.383Z,52075.36
2022-09-04T07:41:17.645Z,52056.07
2022-09-04T07:43:54.695Z,52065.72
2022-09-04T07:46:30.669Z,52051.65
2022-09-04T07:49:07.409Z,52040.00
2022-09-04T07:51:38.099Z,52048.43
2022-09-04T07:54:22.622Z,52070.14
2022-09-04T07:57:00.123Z,52060.09
2022-09-04T07:59:49.585Z,52082.60
2022-09-04T08:02:36.283Z,52068.13
2022-09-04T08:05:09.936Z,52093.04
2022-09-04T08:08:00.723Z,52054.87
2022-09-04T08:10:31.776Z,52074.96
2022-09-04T08:13:15.290Z,52062.91
2022-09-04T08:15:46.809Z,52061.70
2022-09-04T08:18:21.541Z,52069.33
2022-09-04T08:20:53.011Z,52080.18
2022-09-04T08:23:36.056Z,52060.09
2022-09-04T08:26:14.844Z,52056.07
2022-09-04T08:29:04.122Z,52056.48
2022-09-04T08:31:35.014Z,52066.12
2022-09-04T08:34:25.762Z,52058.09
2022-09-04T08:36:57.211Z,52069.34
2022-09-04T08:39:30.182Z,52077.37
2022-09-04T08:42:22.607Z,52064.51
2022-09-04T08:45:09.383Z,52068.93
2022-09-04T08:47:57.712Z,52074.55
2022-09-04T08:50:40.816Z,52069.34
2022-09-04T08:53:24.023Z,52053.66
2022-09-04T08:55:57.270Z,52035.58
2022-09-04T08:58:47.955Z,52064.51
2022-09-04T09:01:25.747Z,52047.64
2022-09-04T09:04:21.319Z,52058.48
2022-09-04T09:07:04.570Z,52049.64
2022-09-04T09:10:06.107Z,52054.87
2022-09-04T09:12:54.219Z,52055.67
2022-09-04T09:15:37.513Z,52052.05
2022-09-04T09:18:11.923Z,52047.64
2022-09-04T09:20:44.428Z,52056.48
2022-09-04T09:23:21.804Z,52037.59
2022-09-04T09:25:53.314Z,52044.82
2022-09-04T09:28:42.674Z,52042.01
2022-09-04T09:31:27.935Z,52050.45
2022-09-04T09:34:14.045Z,52040.80
2022-09-04T09:36:52.619Z,52029.15
2022-09-04T09:39:34.040Z,52028.75
2022-09-04T09:42:27.533Z,52041.20
2022-09-04T09:45:11.348Z,52040.40
2022-09-04T09:47:46.532Z,52048.84
2022-09-04T09:50:21.640Z,52036.79
2022-09-04T09:53:04.834Z,52034.77
2022-09-04T09:55:42.268Z,52028.75
2022-09-04T09:58:25.603Z,52036.38
2022-09-04T10:01:01.757Z,52031.16
2022-09-04T10:04:04.433Z,52038.39
2022-09-04T10:06:45.015Z,52027.54
2022-09-04T10:09:32.267Z,52029.55
2022-09-04T10:12:07.086Z,52028.75
2022-09-04T10:14:42.134Z,52014.68
2022-09-04T10:17:19.576Z,52029.15
2022-09-04T10:20:13.173Z,52015.49
2022-09-04T10:22:49.397Z,52030.35
2022-09-04T10:25:32.706Z,52014.68
2022-09-04T10:28:05.357Z,52029.55
2022-09-04T10:30:37.020Z,52010.67
2022-09-04T10:33:20.375Z,52025.53
2022-09-04T10:36:06.444Z,52026.34
2022-09-04T10:38:38.219Z,52017.50
2022-09-04T10:41:17.847Z,52015.49
2022-09-04T10:44:04.123Z,52000.21
2022-09-04T10:46:36.331Z,51984.55
2022-09-04T10:49:15.192Z,51976.51
2022-09-04T10:51:53.910Z,51956.82
2022-09-04T10:54:45.224Z,51958.02
2022-09-04T10:57:19.314Z,51960.84
2022-09-04T10:59:59.127Z,51961.64
2022-09-04T11:02:42.689Z,51945.97
2022-09-04T11:05:24.651Z,51958.83
2022-09-04T11:07:59.044Z,51974.50
2022-09-04T11:10:31.828Z,51968.48
2022-09-04T11:13:21.633Z,51978.52
2022-09-04T11:16:11.034Z,52002.23
2022-09-04T11:19:01.897Z,51994.59
2022-09-04T11:21:49.800Z,52015.89
2022-09-04T11:24:33.763Z,52003.84
2022-09-04T11:27:17.367Z,52010.66
2022-09-04T11:29:56.560Z,52008.25
2022-09-04T11:32:32.205Z,52016.29
2022-09-04T11:35:22.738Z,52011.87
2022-09-04T11:38:02.328Z,52007.45
2022-09-04T11:40:36.683Z,52017.50
2022-09-04T11:43:10.798Z,52011.07
2022-09-04T11:45:49.015Z,52022.32
2022-09-04T11:48:26.621Z,52025.54
2022-09-04T11:51:10.193Z,52025.93
2022-09-04T11:53:48.498Z,52030.76
2022-09-04T11:56:37.516Z,52026.74
2022-09-04T11:59:11.822Z,52036.79
2022-09-04T12:01:49.889Z,52042.01
2022-09-04T12:04:39.362Z,52051.65
2022-09-04T12:07:18.226Z,52036.38
2022-09-04T12:09:52.853Z,52031.56
2022-09-04T12:12:36.198Z,52051.66
2022-09-04T12:15:28.599Z,52025.13
2022-09-04T12:18:08.953Z,52032.77
2022-09-04T12:20:48.140Z,52023.52
2022-09-04T12:23:28.709Z,52055.67
2022-09-04T12:26:16.932Z,52031.96
2022-09-04T12:29:00.281Z,52041.61
2022-09-04T12:31:36.714Z,52053.26
2022-09-04T12:34:16.484Z,52040.40
2022-09-04T12:37:00.801Z,52038.79
2022-09-04T12:39:44.542Z,52053.66
2022-09-04T12:42:15.024Z,52030.76
2022-09-04T12:44:47.442Z,52042.01
2022-09-04T12:47:23.898Z,52034.38
2022-09-04T12:50:00.837Z,52045.22
2022-09-04T12:52:35.224Z,52045.23
2022-09-04T12:55:08.052Z,52031.96
2022-09-04T12:57:38.866Z,52043.62
2022-09-04T13:00:11.127Z,52038.39
2022-09-04T13:02:47.163Z,52038.39
2022-09-04T13:05:33.707Z,52029.96
2022-09-04T13:08:05.900Z,52040.40
2022-09-04T13:10:38.330Z,52036.38
2022-09-04T13:13:11.592Z,52050.85
2022-09-04T13:15:42.915Z,52044.82
2022-09-04T13:18:21.505Z,52032.77
2022-09-04T13:20:53.208Z,52047.63
2022-09-04T13:23:28.890Z,52038.39
2022-09-04T13:26:09.649Z,52054.46
2022-09-04T13:28:42.769Z,52039.60
2022-09-04T13:31:25.800Z,52045.63
2022-09-04T13:33:57.104Z,52037.59
2022-09-04T13:36:29.628Z,52055.67
2022-09-04T13:39:07.297Z,52046.83
2022-09-04T13:41:42.904Z,52056.88
2022-09-04T13:44:21.190Z,52041.61
2022-09-04T13:46:51.666Z,52040.80
2022-09-04T13:49:24.607Z,52045.63
2022-09-04T13:51:59.690Z,52044.02
2022-09-04T13:54:31.290Z,52038.79
2022-09-04T13:57:02.542Z,52019.91
2022-09-04T13:59:32.548Z,52017.89
2022-09-04T14:02:04.927Z,52023.52
2022-09-04T14:04:36.946Z,52033.57
2022-09-04T14:07:07.579Z,52017.49
2022-09-04T14:09:39.627Z,52027.14
2022-09-04T14:12:18.892Z,52024.73
2022-09-04T14:15:08.327Z,52013.48
2022-09-04T14:17:39.404Z,52029.15
2022-09-04T14:20:12.789Z,52036.79
2022-09-04T14:22:46.619Z,52033.57
2022-09-04T14:25:18.817Z,52037.99
2022-09-04T14:27:53.546Z,52040.80
2022-09-04T14:30:23.547Z,52048.04
2022-09-04T14:32:58.136Z,52042.01
2022-09-04T14:35:31.869Z,52034.38
2022-09-04T14:38:19.328Z,52038.79
2022-09-04T14:40:50.714Z,52048.84
2022-09-04T14:43:22.993Z,52043.21
2022-09-04T14:46:09.355Z,52046.83
2022-09-04T14:48:41.143Z,52028.75
2022-09-04T14:51:15.991Z,52037.19
2022-09-04T14:53:49.706Z,52007.05
2022-09-04T14:56:24.700Z,51997.00
2022-09-04T14:58:56.206Z,52005.04
2022-09-04T15:01:26.369Z,52012.27
2022-09-04T15:03:57.332Z,52011.07
2022-09-04T15:06:31.412Z,52003.84
2022-09-04T15:09:15.773Z,52015.89
2022-09-04T15:11:46.515Z,52030.36
2022-09-04T15:14:26.545Z,52025.93
2022-09-04T15:16:57.844Z,52046.83
2022-09-04T15:19:32.863Z,52042.01
2022-09-04T15:22:05.488Z,52031.56
2022-09-04T15:24:38.262Z,52047.64
2022-09-04T15:27:12.951Z,52048.44
2022-09-04T15:29:47.741Z,52032.77
2022-09-04T15:32:22.535Z,52045.63
2022-09-04T15:34:53.470Z,52046.83
2022-09-04T15:37:24.283Z,52027.14
2022-09-04T15:39:55.814Z,52054.87
2022-09-04T15:42:37.040Z,52051.66
2022-09-04T15:45:09.118Z,52042.01
2022-09-04T15:47:46.665Z,52044.82
2022-09-04T15:50:20.764Z,52058.09
2022-09-04T15:52:52.589Z,52064.11
2022-09-04T15:55:24.536Z,52045.23
2022-09-04T15:57:59.215Z,52053.26
2022-09-04T16:00:32.373Z,52041.20
2022-09-04T16:03:07.203Z,52034.77
2022-09-04T16:05:41.670Z,52030.36
2022-09-04T16:08:21.527Z,52026.74
2022-09-04T16:10:55.140Z,52051.65
2022-09-04T16:13:36.297Z,52033.57
2022-09-04T16:16:10.339Z,52048.84
2022-09-04T16:18:47.093Z,52042.81
2022-09-04T16:21:21.561Z,52057.68
2022-09-04T16:23:51.833Z,52033.17
2022-09-04T16:26:24.085Z,52052.86
2022-09-04T16:28:56.433Z,52044.42
2022-09-04T16:31:31.381Z,52073.35
2022-09-04T16:34:01.533Z,52049.64
2022-09-04T16:36:34.781Z,52047.63
2022-09-04T16:39:12.082Z,52057.68
2022-09-04T16:41:42.542Z,52057.68
2022-09-04T16:44:15.932Z,52054.87
2022-09-04T16:47:03.059Z,52052.46
2022-09-04T16:49:35.652Z,52062.10
2022-09-04T16:52:22.359Z,52049.24
2022-09-04T16:54:53.553Z,52046.43
2022-09-04T16:57:26.942Z,52048.44
2022-09-04T16:59:57.610Z,52040.00
2022-09-04T17:02:36.076Z,52058.09
2022-09-04T17:05:13.608Z,52074.96
2022-09-04T17:07:44.982Z,52070.54
2022-09-04T17:10:21.953Z,52055.67
2022-09-04T17:12:52.909Z,52056.48
2022-09-04T17:15:27.316Z,52069.73
2022-09-04T17:17:59.040Z,52047.23
2022-09-04T17:20:53.683Z,52060.09
2022-09-04T17:29:03.251Z,52059.29
2022-09-04T17:29:13.598Z,52076.57
2022-09-04T17:29:34.920Z,52065.31
2022-09-04T17:31:56.209Z,52058.89
2022-09-04T17:40:38.566Z,52055.68
2022-09-04T17:40:44.397Z,52058.08
2022-09-04T17:41:32.470Z,52058.48
2022-09-04T17:43:22.621Z,52063.30
2022-09-04T17:45:59.537Z,52066.52
2022-09-04T17:48:29.799Z,52058.08
2022-09-04T17:51:00.777Z,52069.73
2022-09-04T17:53:33.566Z,52072.95
2022-09-04T17:56:07.037Z,52083.80
2022-09-04T17:58:38.846Z,52071.74
2022-09-04T18:01:14.915Z,52068.13
2022-09-04T18:04:21.077Z,52076.57
2022-09-04T18:06:40.258Z,52085.00
2022-09-04T18:09:12.652Z,52070.54
2022-09-04T18:12:00.317Z,52086.21
2022-09-04T18:14:35.513Z,52079.78
2022-09-04T18:17:12.423Z,52077.37
2022-09-04T18:19:44.904Z,52071.34
2022-09-04T18:22:26.707Z,52083.80
2022-09-04T18:25:16.251Z,52078.98
2022-09-04T18:28:06.214Z,52073.76
2022-09-04T18:37:07.300Z,52103.09
2022-09-04T18:37:18.592Z,52089.43
2022-09-04T18:37:21.499Z,52095.05
2022-09-04T18:39:32.630Z,52089.43
2022-09-04T18:48:21.788Z,52100.27
2022-09-04T18:50:33.983Z,52109.93
2022-09-04T18:50:53.076Z,52109.52
2022-09-04T18:53:43.543Z,52100.27
2022-09-04T18:56:20.968Z,52108.71
2022-09-04T18:58:55.497Z,52113.14
2022-09-04T19:01:27.170Z,52100.68
2022-09-04T19:03:57.888Z,52106.71
2022-09-04T19:06:32.444Z,52109.92
2022-09-04T19:09:03.862Z,52117.55
2022-09-04T19:11:34.150Z,52123.18
2022-09-04T19:14:10.319Z,52123.58
2022-09-04T19:16:41.298Z,52109.52
2022-09-04T19:19:17.265Z,52115.95
2022-09-04T19:21:57.524Z,52120.77
2022-09-04T19:24:34.566Z,52123.99
2022-09-04T19:27:26.911Z,52113.54
2022-09-04T19:30:17.776Z,52107.11
2022-09-04T19:33:08.879Z,52123.18
2022-09-04T19:35:39.718Z,52121.57
2022-09-04T19:41:51.506Z,52125.19
2022-09-04T19:45:59.350Z,52120.77
2022-09-04T19:46:07.452Z,52134.84
2022-09-04T19:46:50.684Z,52128.41
2022-09-04T19:53:11.474Z,52132.43
2022-09-04T19:53:35.187Z,52132.42
2022-09-04T19:55:24.657Z,52127.20
2022-09-04T19:58:01.777Z,52128.01
2022-09-04T20:00:44.003Z,52130.01
2022-09-04T20:03:29.022Z,52136.85
2022-09-04T20:06:20.767Z,52128.00
2022-09-04T20:08:51.927Z,52129.21
2022-09-04T20:11:34.859Z,52137.25
2022-09-04T20:14:14.011Z,52136.45
2022-09-04T20:16:50.042Z,52138.45
2022-09-04T20:19:28.046Z,52139.66
2022-09-04T20:22:01.239Z,52141.66
2022-09-04T20:24:34.339Z,52146.49
2022-09-04T20:27:07.148Z,52150.51
2022-09-04T20:29:38.912Z,52140.06
2022-09-04T20:32:11.265Z,52134.03
2022-09-04T20:34:43.872Z,52137.25
2022-09-04T20:37:26.080Z,52137.65
2022-09-04T20:40:01.637Z,52158.95
2022-09-04T20:42:32.135Z,52150.11
2022-09-04T20:48:13.919Z,52150.51
2022-09-04T20:52:49.710Z,52137.25
2022-09-04T20:52:59.020Z,52151.71
2022-09-04T20:53:41.388Z,52158.14
2022-09-04T20:57:07.574Z,52134.84
2022-09-04T21:03:10.464Z,52143.27
2022-09-04T21:03:17.499Z,52162.96
2022-09-04T21:04:52.111Z,52136.44
2022-09-04T21:07:24.945Z,52154.13
2022-09-04T21:09:58.667Z,52140.87
2022-09-04T21:12:30.615Z,52154.93
2022-09-04T21:15:04.465Z,52152.92
2022-09-04T21:17:39.214Z,52155.33
2022-09-04T21:20:29.576Z,52148.90
2022-09-04T21:23:05.745Z,52146.49
2022-09-04T21:25:37.695Z,52157.34
2022-09-04T21:28:24.841Z,52158.95
2022-09-04T21:31:14.229Z,52152.52
2022-09-04T21:33:46.064Z,52152.52
2022-09-04T21:36:26.516Z,52160.55
2022-09-04T21:39:10.681Z,52147.29
2022-09-04T21:41:44.710Z,52161.36
2022-09-04T21:44:27.818Z,52140.86
2022-09-04T21:47:08.453Z,52145.29
2022-09-04T21:50:11.096Z,52134.43
2022-09-04T21:52:57.069Z,52147.30
2022-09-04T21:59:56.866Z,52154.52
2022-09-04T22:02:31.587Z,52139.66
2022-09-04T22:02:37.028Z,52140.86
2022-09-04T22:04:18.996Z,52148.50
2022-09-04T22:07:59.693Z,52150.11
2022-09-04T22:13:33.969Z,52149.30
2022-09-04T22:13:38.522Z,52146.49
2022-09-04T22:15:49.123Z,52156.54
2022-09-04T22:18:30.747Z,52148.90
2022-09-04T22:21:03.895Z,52156.13
2022-09-04T22:23:53.900Z,52152.12
2022-09-04T22:26:29.309Z,52145.69
2022-09-04T22:29:05.505Z,52158.55
2022-09-04T22:31:48.748Z,52164.98
2022-09-04T22:34:27.724Z,52152.92
2022-09-04T22:37:08.781Z,52149.30
2022-09-04T22:39:41.729Z,52159.75
2022-09-04T22:42:31.050Z,52164.17
2022-09-04T22:45:18.296Z,52164.57
2022-09-04T22:47:54.437Z,52163.37
2022-09-04T22:50:49.748Z,52171.41
2022-09-04T22:53:33.639Z,52149.70
2022-09-04T22:56:24.578Z,52170.20
2022-09-04T22:59:20.284Z,52169.80
2022-09-04T23:02:13.347Z,52153.73
2022-09-04T23:04:55.242Z,52158.55
2022-09-04T23:11:23.171Z,52161.76
2022-09-04T23:13:47.317Z,52163.37
2022-09-04T23:13:48.828Z,52163.37
2022-09-04T23:16:39.320Z,52161.36
2022-09-04T23:19:52.254Z,52173.41
2022-09-04T23:26:36.373Z,52160.15
2022-09-04T23:26:49.021Z,52162.16
2022-09-04T23:27:52.218Z,52168.99
2022-09-04T23:30:25.223Z,52167.38
2022-09-04T23:33:06.684Z,52154.93
2022-09-04T23:35:40.239Z,52160.55
2022-09-04T23:38:19.684Z,52179.45
2022-09-04T23:40:49.791Z,52163.37
2022-09-04T23:43:24.601Z,52156.94
2022-09-04T23:46:02.202Z,52179.04
2022-09-04T23:48:38.857Z,52173.01
2022-09-04T23:51:11.477Z,52171.80
2022-09-04T23:53:44.258Z,52160.96
2022-09-04T23:56:20.538Z,52166.99
2022-09-04T23:59:21.205Z,52171.40
